sensor_id;sensor_type;location;lat;lon;timestamp;P1;durP1;ratioP1;P2;durP2;ratioP2
2488;SDS011;1255;48.716;9.124;2023-08-06T00:00:29;3.20;;;2.40;;
2488;SDS011;1255;48.716;9.124;2023-08-06T00:02:56;2.17;;;1.90;;
2488;SDS011;1255;48.716;9.124;2023-08-06T00:05:23;2.70;;;1.83;;
2488;SDS011;1255;48.716;9.124;2023-08-06T00:07:51;3.00;;;2.30;;
2488;SDS011;1255;48.716;9.124;2023-08-06T00:10:17;2.73;;;2.30;;
2488;SDS011;1255;48.716;9.124;2023-08-06T00:12:44;2.67;;;2.30;;
2488;SDS011;1255;48.716;9.124;2023-08-06T00:15:11;2.37;;;2.03;;
2488;SDS011;1255;48.716;9.124;2023-08-06T00:17:38;2.50;;;2.30;;
2488;SDS011;1255;48.716;9.124;2023-08-06T00:20:05;2.50;;;2.30;;
2488;SDS011;1255;48.716;9.124;2023-08-06T00:22:33;2.77;;;2.57;;
2488;SDS011;1255;48.716;9.124;2023-08-06T00:25:02;2.47;;;2.03;;
2488;SDS011;1255;48.716;9.124;2023-08-06T00:27:29;2.50;;;2.30;;
2488;SDS011;1255;48.716;9.124;2023-08-06T00:29:57;2.73;;;2.40;;
2488;SDS011;1255;48.716;9.124;2023-08-06T00:32:24;2.37;;;2.17;;
2488;SDS011;1255;48.716;9.124;2023-08-06T00:34:51;2.83;;;2.20;;
2488;SDS011;1255;48.716;9.124;2023-08-06T00:37:17;3.00;;;2.57;;
2488;SDS011;1255;48.716;9.124;2023-08-06T00:39:44;2.17;;;1.97;;
2488;SDS011;1255;48.716;9.124;2023-08-06T00:42:12;2.60;;;2.40;;
2488;SDS011;1255;48.716;9.124;2023-08-06T00:44:39;2.60;;;2.40;;
2488;SDS011;1255;48.716;9.124;2023-08-06T00:47:06;2.63;;;2.43;;
2488;SDS011;1255;48.716;9.124;2023-08-06T00:49:34;2.43;;;2.23;;
2488;SDS011;1255;48.716;9.124;2023-08-06T00:52:02;2.80;;;2.10;;
2488;SDS011;1255;48.716;9.124;2023-08-06T00:54:30;2.07;;;1.87;;
2488;SDS011;1255;48.716;9.124;2023-08-06T00:56:57;2.83;;;2.00;;
2488;SDS011;1255;48.716;9.124;2023-08-06T00:59:26;2.30;;;2.10;;
2488;SDS011;1255;48.716;9.124;2023-08-06T01:01:54;2.50;;;2.30;;
2488;SDS011;1255;48.716;9.124;2023-08-06T01:04:21;1.90;;;1.80;;
2488;SDS011;1255;48.716;9.124;2023-08-06T01:06:52;2.40;;;2.17;;
2488;SDS011;1255;48.716;9.124;2023-08-06T01:09:31;2.83;;;2.00;;
2488;SDS011;1255;48.716;9.124;2023-08-06T01:12:06;1.80;;;1.70;;
2488;SDS011;1255;48.716;9.124;2023-08-06T01:14:41;5.17;;;2.30;;
2488;SDS011;1255;48.716;9.124;2023-08-06T01:17:13;2.20;;;2.00;;
2488;SDS011;1255;48.716;9.124;2023-08-06T01:19:41;2.37;;;1.80;;
2488;SDS011;1255;48.716;9.124;2023-08-06T01:22:09;2.03;;;1.83;;
2488;SDS011;1255;48.716;9.124;2023-08-06T01:24:35;2.23;;;2.10;;
2488;SDS011;1255;48.716;9.124;2023-08-06T01:27:03;2.67;;;2.17;;
2488;SDS011;1255;48.716;9.124;2023-08-06T01:29:38;2.47;;;2.27;;
2488;SDS011;1255;48.716;9.124;2023-08-06T01:32:11;2.83;;;2.07;;
2488;SDS011;1255;48.716;9.124;2023-08-06T01:34:40;2.33;;;2.13;;
2488;SDS011;1255;48.716;9.124;2023-08-06T01:37:11;2.03;;;1.83;;
2488;SDS011;1255;48.716;9.124;2023-08-06T01:39:38;2.20;;;2.00;;
2488;SDS011;1255;48.716;9.124;2023-08-06T01:42:08;2.70;;;2.50;;
2488;SDS011;1255;48.716;9.124;2023-08-06T01:44:35;2.03;;;1.83;;
2488;SDS011;1255;48.716;9.124;2023-08-06T01:47:01;2.30;;;2.10;;
2488;SDS011;1255;48.716;9.124;2023-08-06T01:49:28;2.13;;;1.93;;
2488;SDS011;1255;48.716;9.124;2023-08-06T01:51:55;2.13;;;1.93;;
2488;SDS011;1255;48.716;9.124;2023-08-06T01:54:23;2.60;;;2.00;;
2488;SDS011;1255;48.716;9.124;2023-08-06T01:56:50;2.90;;;2.47;;
2488;SDS011;1255;48.716;9.124;2023-08-06T01:59:16;2.50;;;2.10;;
2488;SDS011;1255;48.716;9.124;2023-08-06T02:01:43;2.43;;;2.23;;
2488;SDS011;1255;48.716;9.124;2023-08-06T02:04:10;3.13;;;2.30;;
2488;SDS011;1255;48.716;9.124;2023-08-06T02:09:05;2.20;;;1.97;;
2488;SDS011;1255;48.716;9.124;2023-08-06T02:11:33;2.30;;;2.10;;
2488;SDS011;1255;48.716;9.124;2023-08-06T02:14:00;2.87;;;2.40;;
2488;SDS011;1255;48.716;9.124;2023-08-06T02:16:26;2.80;;;2.40;;
2488;SDS011;1255;48.716;9.124;2023-08-06T02:18:53;2.37;;;2.17;;
2488;SDS011;1255;48.716;9.124;2023-08-06T02:21:20;2.30;;;2.10;;
2488;SDS011;1255;48.716;9.124;2023-08-06T02:23:46;2.40;;;2.13;;
2488;SDS011;1255;48.716;9.124;2023-08-06T02:26:13;3.00;;;2.40;;
2488;SDS011;1255;48.716;9.124;2023-08-06T02:28:41;2.60;;;2.40;;
2488;SDS011;1255;48.716;9.124;2023-08-06T02:31:08;2.57;;;2.37;;
2488;SDS011;1255;48.716;9.124;2023-08-06T02:33:34;2.10;;;1.90;;
2488;SDS011;1255;48.716;9.124;2023-08-06T02:36:02;2.23;;;2.03;;
2488;SDS011;1255;48.716;9.124;2023-08-06T02:38:29;2.23;;;2.03;;
2488;SDS011;1255;48.716;9.124;2023-08-06T02:40:56;2.10;;;1.90;;
2488;SDS011;1255;48.716;9.124;2023-08-06T02:43:23;2.63;;;2.00;;
2488;SDS011;1255;48.716;9.124;2023-08-06T02:45:51;1.93;;;1.73;;
2488;SDS011;1255;48.716;9.124;2023-08-06T02:48:18;2.70;;;2.33;;
2488;SDS011;1255;48.716;9.124;2023-08-06T02:50:44;2.17;;;1.97;;
2488;SDS011;1255;48.716;9.124;2023-08-06T02:53:11;2.70;;;2.20;;
2488;SDS011;1255;48.716;9.124;2023-08-06T02:55:38;1.90;;;1.80;;
2488;SDS011;1255;48.716;9.124;2023-08-06T02:58:11;2.13;;;1.93;;
2488;SDS011;1255;48.716;9.124;2023-08-06T03:00:38;3.77;;;1.90;;
2488;SDS011;1255;48.716;9.124;2023-08-06T03:03:06;2.13;;;1.93;;
2488;SDS011;1255;48.716;9.124;2023-08-06T03:05:32;2.30;;;2.00;;
2488;SDS011;1255;48.716;9.124;2023-08-06T03:07:59;2.13;;;2.03;;
2488;SDS011;1255;48.716;9.124;2023-08-06T03:10:26;1.70;;;1.50;;
2488;SDS011;1255;48.716;9.124;2023-08-06T03:12:53;2.53;;;2.00;;
2488;SDS011;1255;48.716;9.124;2023-08-06T03:15:19;2.40;;;1.70;;
2488;SDS011;1255;48.716;9.124;2023-08-06T03:17:46;2.23;;;2.03;;
2488;SDS011;1255;48.716;9.124;2023-08-06T03:20:14;2.60;;;2.00;;
2488;SDS011;1255;48.716;9.124;2023-08-06T03:22:41;1.73;;;1.63;;
2488;SDS011;1255;48.716;9.124;2023-08-06T03:25:07;2.37;;;2.17;;
2488;SDS011;1255;48.716;9.124;2023-08-06T03:27:34;2.30;;;2.03;;
2488;SDS011;1255;48.716;9.124;2023-08-06T03:30:01;2.97;;;1.97;;
2488;SDS011;1255;48.716;9.124;2023-08-06T03:32:28;1.90;;;1.70;;
2488;SDS011;1255;48.716;9.124;2023-08-06T03:34:54;1.93;;;1.80;;
2488;SDS011;1255;48.716;9.124;2023-08-06T03:37:22;2.10;;;1.80;;
2488;SDS011;1255;48.716;9.124;2023-08-06T03:39:49;2.13;;;2.00;;
2488;SDS011;1255;48.716;9.124;2023-08-06T03:42:16;2.10;;;1.80;;
2488;SDS011;1255;48.716;9.124;2023-08-06T03:44:42;2.30;;;1.53;;
2488;SDS011;1255;48.716;9.124;2023-08-06T03:47:09;2.80;;;2.50;;
2488;SDS011;1255;48.716;9.124;2023-08-06T03:49:36;2.80;;;1.97;;
2488;SDS011;1255;48.716;9.124;2023-08-06T03:52:03;1.63;;;1.53;;
2488;SDS011;1255;48.716;9.124;2023-08-06T03:54:31;2.00;;;1.67;;
2488;SDS011;1255;48.716;9.124;2023-08-06T03:56:58;2.00;;;1.80;;
2488;SDS011;1255;48.716;9.124;2023-08-06T03:59:25;3.03;;;1.90;;
2488;SDS011;1255;48.716;9.124;2023-08-06T04:01:51;2.87;;;2.00;;
2488;SDS011;1255;48.716;9.124;2023-08-06T04:04:18;2.30;;;2.10;;
2488;SDS011;1255;48.716;9.124;2023-08-06T04:06:45;1.60;;;1.40;;
2488;SDS011;1255;48.716;9.124;2023-08-06T04:09:11;1.80;;;1.63;;
2488;SDS011;1255;48.716;9.124;2023-08-06T04:11:40;1.93;;;1.83;;
2488;SDS011;1255;48.716;9.124;2023-08-06T04:14:07;2.23;;;1.97;;
2488;SDS011;1255;48.716;9.124;2023-08-06T04:16:34;2.27;;;2.07;;
2488;SDS011;1255;48.716;9.124;2023-08-06T04:19:00;4.30;;;1.83;;
2488;SDS011;1255;48.716;9.124;2023-08-06T04:21:27;2.43;;;1.77;;
2488;SDS011;1255;48.716;9.124;2023-08-06T04:23:54;2.03;;;1.57;;
2488;SDS011;1255;48.716;9.124;2023-08-06T04:26:20;3.60;;;1.60;;
2488;SDS011;1255;48.716;9.124;2023-08-06T04:28:48;1.73;;;1.63;;
2488;SDS011;1255;48.716;9.124;2023-08-06T04:31:15;2.60;;;1.80;;
2488;SDS011;1255;48.716;9.124;2023-08-06T04:33:42;1.70;;;1.37;;
2488;SDS011;1255;48.716;9.124;2023-08-06T04:36:08;1.70;;;1.60;;
2488;SDS011;1255;48.716;9.124;2023-08-06T04:38:35;1.57;;;1.47;;
2488;SDS011;1255;48.716;9.124;2023-08-06T04:41:03;1.47;;;1.37;;
2488;SDS011;1255;48.716;9.124;2023-08-06T04:43:30;1.77;;;1.60;;
2488;SDS011;1255;48.716;9.124;2023-08-06T04:46:01;1.63;;;1.53;;
2488;SDS011;1255;48.716;9.124;2023-08-06T04:48:27;2.53;;;1.63;;
2488;SDS011;1255;48.716;9.124;2023-08-06T04:50:54;2.80;;;1.87;;
2488;SDS011;1255;48.716;9.124;2023-08-06T04:53:21;1.63;;;1.33;;
2488;SDS011;1255;48.716;9.124;2023-08-06T04:55:47;1.87;;;1.70;;
2488;SDS011;1255;48.716;9.124;2023-08-06T04:58:14;1.70;;;1.40;;
2488;SDS011;1255;48.716;9.124;2023-08-06T05:00:41;2.70;;;1.60;;
2488;SDS011;1255;48.716;9.124;2023-08-06T05:03:09;4.70;;;2.37;;
2488;SDS011;1255;48.716;9.124;2023-08-06T05:05:36;1.80;;;1.30;;
2488;SDS011;1255;48.716;9.124;2023-08-06T05:08:03;1.47;;;1.37;;
2488;SDS011;1255;48.716;9.124;2023-08-06T05:10:30;1.97;;;1.50;;
2488;SDS011;1255;48.716;9.124;2023-08-06T05:12:56;2.30;;;1.30;;
2488;SDS011;1255;48.716;9.124;2023-08-06T05:15:23;1.00;;;0.90;;
2488;SDS011;1255;48.716;9.124;2023-08-06T05:17:50;2.20;;;1.50;;
2488;SDS011;1255;48.716;9.124;2023-08-06T05:20:18;3.00;;;1.40;;
2488;SDS011;1255;48.716;9.124;2023-08-06T05:22:46;2.10;;;1.20;;
2488;SDS011;1255;48.716;9.124;2023-08-06T05:25:13;1.73;;;1.03;;
2488;SDS011;1255;48.716;9.124;2023-08-06T05:27:40;1.40;;;1.07;;
2488;SDS011;1255;48.716;9.124;2023-08-06T05:30:07;1.73;;;1.10;;
2488;SDS011;1255;48.716;9.124;2023-08-06T05:32:35;1.60;;;1.13;;
2488;SDS011;1255;48.716;9.124;2023-08-06T05:35:02;1.00;;;0.90;;
2488;SDS011;1255;48.716;9.124;2023-08-06T05:37:30;2.10;;;1.03;;
2488;SDS011;1255;48.716;9.124;2023-08-06T05:39:57;1.20;;;0.80;;
2488;SDS011;1255;48.716;9.124;2023-08-06T05:42:23;2.30;;;1.27;;
2488;SDS011;1255;48.716;9.124;2023-08-06T05:44:50;3.33;;;1.30;;
2488;SDS011;1255;48.716;9.124;2023-08-06T05:47:17;1.67;;;1.10;;
2488;SDS011;1255;48.716;9.124;2023-08-06T05:49:44;1.52;;;1.10;;
2488;SDS011;1255;48.716;9.124;2023-08-06T05:52:11;1.77;;;1.23;;
2488;SDS011;1255;48.716;9.124;2023-08-06T05:54:39;1.53;;;1.00;;
2488;SDS011;1255;48.716;9.124;2023-08-06T05:57:06;1.30;;;1.17;;
2488;SDS011;1255;48.716;9.124;2023-08-06T05:59:33;3.67;;;1.10;;
2488;SDS011;1255;48.716;9.124;2023-08-06T06:01:59;2.50;;;1.60;;
2488;SDS011;1255;48.716;9.124;2023-08-06T06:04:27;1.00;;;0.80;;
2488;SDS011;1255;48.716;9.124;2023-08-06T06:06:54;1.00;;;0.80;;
2488;SDS011;1255;48.716;9.124;2023-08-06T06:09:21;2.17;;;1.03;;
2488;SDS011;1255;48.716;9.124;2023-08-06T06:11:49;1.17;;;0.80;;
2488;SDS011;1255;48.716;9.124;2023-08-06T06:14:15;2.20;;;0.90;;
2488;SDS011;1255;48.716;9.124;2023-08-06T06:16:42;1.20;;;1.03;;
2488;SDS011;1255;48.716;9.124;2023-08-06T06:19:09;1.00;;;0.90;;
2488;SDS011;1255;48.716;9.124;2023-08-06T06:21:36;1.00;;;0.87;;
2488;SDS011;1255;48.716;9.124;2023-08-06T06:24:03;4.57;;;1.03;;
2488;SDS011;1255;48.716;9.124;2023-08-06T06:26:30;1.27;;;1.07;;
2488;SDS011;1255;48.716;9.124;2023-08-06T06:28:59;1.23;;;1.03;;
2488;SDS011;1255;48.716;9.124;2023-08-06T06:31:25;2.13;;;1.20;;
2488;SDS011;1255;48.716;9.124;2023-08-06T06:33:52;1.90;;;1.07;;
2488;SDS011;1255;48.716;9.124;2023-08-06T06:36:19;1.37;;;0.90;;
2488;SDS011;1255;48.716;9.124;2023-08-06T06:38:46;1.27;;;0.90;;
2488;SDS011;1255;48.716;9.124;2023-08-06T06:41:14;1.00;;;0.80;;
2488;SDS011;1255;48.716;9.124;2023-08-06T06:43:41;2.40;;;1.07;;
2488;SDS011;1255;48.716;9.124;2023-08-06T06:46:09;1.20;;;1.00;;
2488;SDS011;1255;48.716;9.124;2023-08-06T06:48:35;1.43;;;0.93;;
2488;SDS011;1255;48.716;9.124;2023-08-06T06:51:02;0.97;;;0.80;;
2488;SDS011;1255;48.716;9.124;2023-08-06T06:53:29;1.37;;;1.00;;
2488;SDS011;1255;48.716;9.124;2023-08-06T06:55:56;1.00;;;0.90;;
2488;SDS011;1255;48.716;9.124;2023-08-06T06:58:27;1.90;;;1.00;;
2488;SDS011;1255;48.716;9.124;2023-08-06T07:00:53;1.23;;;1.07;;
2488;SDS011;1255;48.716;9.124;2023-08-06T07:03:21;1.03;;;0.90;;
2488;SDS011;1255;48.716;9.124;2023-08-06T07:05:48;1.57;;;1.20;;
2488;SDS011;1255;48.716;9.124;2023-08-06T07:08:16;1.13;;;1.00;;
2488;SDS011;1255;48.716;9.124;2023-08-06T07:10:43;1.33;;;0.90;;
2488;SDS011;1255;48.716;9.124;2023-08-06T07:13:09;0.93;;;0.80;;
2488;SDS011;1255;48.716;9.124;2023-08-06T07:15:39;2.10;;;0.97;;
2488;SDS011;1255;48.716;9.124;2023-08-06T07:18:06;1.00;;;0.90;;
2488;SDS011;1255;48.716;9.124;2023-08-06T07:20:34;1.60;;;1.20;;
2488;SDS011;1255;48.716;9.124;2023-08-06T07:23:01;0.83;;;0.73;;
2488;SDS011;1255;48.716;9.124;2023-08-06T07:25:28;1.30;;;0.80;;
2488;SDS011;1255;48.716;9.124;2023-08-06T07:27:54;1.00;;;0.87;;
2488;SDS011;1255;48.716;9.124;2023-08-06T07:30:21;1.93;;;0.80;;
2488;SDS011;1255;48.716;9.124;2023-08-06T07:32:48;1.47;;;1.27;;
2488;SDS011;1255;48.716;9.124;2023-08-06T07:35:15;1.30;;;0.80;;
2488;SDS011;1255;48.716;9.124;2023-08-06T07:37:43;1.00;;;0.80;;
2488;SDS011;1255;48.716;9.124;2023-08-06T07:40:10;1.10;;;0.80;;
2488;SDS011;1255;48.716;9.124;2023-08-06T07:42:37;0.80;;;0.73;;
2488;SDS011;1255;48.716;9.124;2023-08-06T07:45:04;0.80;;;0.70;;
2488;SDS011;1255;48.716;9.124;2023-08-06T07:47:32;1.30;;;1.10;;
2488;SDS011;1255;48.716;9.124;2023-08-06T07:49:58;0.70;;;0.60;;
2488;SDS011;1255;48.716;9.124;2023-08-06T07:52:25;0.80;;;0.70;;
2488;SDS011;1255;48.716;9.124;2023-08-06T07:54:53;1.00;;;0.70;;
2488;SDS011;1255;48.716;9.124;2023-08-06T07:57:20;0.80;;;0.70;;
2488;SDS011;1255;48.716;9.124;2023-08-06T07:59:47;0.97;;;0.80;;
2488;SDS011;1255;48.716;9.124;2023-08-06T08:02:13;0.80;;;0.70;;
2488;SDS011;1255;48.716;9.124;2023-08-06T08:04:40;0.70;;;0.63;;
2488;SDS011;1255;48.716;9.124;2023-08-06T08:07:07;0.80;;;0.70;;
2488;SDS011;1255;48.716;9.124;2023-08-06T08:09:35;0.77;;;0.60;;
2488;SDS011;1255;48.716;9.124;2023-08-06T08:12:04;0.70;;;0.60;;
2488;SDS011;1255;48.716;9.124;2023-08-06T08:14:31;0.90;;;0.73;;
2488;SDS011;1255;48.716;9.124;2023-08-06T08:17:00;1.80;;;0.60;;
2488;SDS011;1255;48.716;9.124;2023-08-06T08:19:27;0.80;;;0.70;;
2488;SDS011;1255;48.716;9.124;2023-08-06T08:21:54;0.90;;;0.70;;
2488;SDS011;1255;48.716;9.124;2023-08-06T08:24:21;0.80;;;0.60;;
2488;SDS011;1255;48.716;9.124;2023-08-06T08:26:48;0.70;;;0.60;;
2488;SDS011;1255;48.716;9.124;2023-08-06T08:29:17;1.40;;;0.70;;
2488;SDS011;1255;48.716;9.124;2023-08-06T08:31:43;1.00;;;0.67;;
2488;SDS011;1255;48.716;9.124;2023-08-06T08:34:10;0.80;;;0.70;;
2488;SDS011;1255;48.716;9.124;2023-08-06T08:36:37;0.70;;;0.60;;
2488;SDS011;1255;48.716;9.124;2023-08-06T08:39:04;0.70;;;0.60;;
2488;SDS011;1255;48.716;9.124;2023-08-06T08:41:31;0.70;;;0.60;;
2488;SDS011;1255;48.716;9.124;2023-08-06T08:43:59;0.73;;;0.63;;
2488;SDS011;1255;48.716;9.124;2023-08-06T08:46:27;0.80;;;0.60;;
2488;SDS011;1255;48.716;9.124;2023-08-06T08:48:56;0.90;;;0.70;;
2488;SDS011;1255;48.716;9.124;2023-08-06T08:51:25;0.90;;;0.70;;
2488;SDS011;1255;48.716;9.124;2023-08-06T08:53:53;0.80;;;0.70;;
2488;SDS011;1255;48.716;9.124;2023-08-06T08:56:21;1.50;;;0.70;;
2488;SDS011;1255;48.716;9.124;2023-08-06T08:58:48;0.80;;;0.70;;
2488;SDS011;1255;48.716;9.124;2023-08-06T09:01:15;0.70;;;0.60;;
2488;SDS011;1255;48.716;9.124;2023-08-06T09:03:43;0.80;;;0.60;;
2488;SDS011;1255;48.716;9.124;2023-08-06T09:06:10;1.03;;;0.93;;
2488;SDS011;1255;48.716;9.124;2023-08-06T09:08:39;0.80;;;0.60;;
2488;SDS011;1255;48.716;9.124;2023-08-06T09:11:13;0.80;;;0.60;;
2488;SDS011;1255;48.716;9.124;2023-08-06T09:13:40;0.77;;;0.63;;
2488;SDS011;1255;48.716;9.124;2023-08-06T09:16:06;0.80;;;0.60;;
2488;SDS011;1255;48.716;9.124;2023-08-06T09:18:33;0.70;;;0.60;;
2488;SDS011;1255;48.716;9.124;2023-08-06T09:21:01;1.20;;;0.80;;
2488;SDS011;1255;48.716;9.124;2023-08-06T09:23:28;2.83;;;0.70;;
2488;SDS011;1255;48.716;9.124;2023-08-06T09:25:56;0.70;;;0.60;;
2488;SDS011;1255;48.716;9.124;2023-08-06T09:28:23;0.80;;;0.60;;
2488;SDS011;1255;48.716;9.124;2023-08-06T09:30:50;0.83;;;0.60;;
2488;SDS011;1255;48.716;9.124;2023-08-06T09:33:20;0.77;;;0.60;;
2488;SDS011;1255;48.716;9.124;2023-08-06T09:35:48;0.80;;;0.70;;
2488;SDS011;1255;48.716;9.124;2023-08-06T09:38:17;0.73;;;0.60;;
2488;SDS011;1255;48.716;9.124;2023-08-06T09:40:43;0.83;;;0.73;;
2488;SDS011;1255;48.716;9.124;2023-08-06T09:43:10;0.77;;;0.60;;
2488;SDS011;1255;48.716;9.124;2023-08-06T09:45:38;0.80;;;0.60;;
2488;SDS011;1255;48.716;9.124;2023-08-06T09:48:06;0.80;;;0.67;;
2488;SDS011;1255;48.716;9.124;2023-08-06T09:50:34;0.80;;;0.70;;
2488;SDS011;1255;48.716;9.124;2023-08-06T09:53:02;0.93;;;0.80;;
2488;SDS011;1255;48.716;9.124;2023-08-06T09:55:31;0.80;;;0.60;;
2488;SDS011;1255;48.716;9.124;2023-08-06T09:57:59;2.40;;;0.70;;
2488;SDS011;1255;48.716;9.124;2023-08-06T10:00:26;0.80;;;0.70;;
2488;SDS011;1255;48.716;9.124;2023-08-06T10:02:53;0.80;;;0.60;;
2488;SDS011;1255;48.716;9.124;2023-08-06T10:05:21;0.80;;;0.70;;
2488;SDS011;1255;48.716;9.124;2023-08-06T10:07:48;0.80;;;0.60;;
2488;SDS011;1255;48.716;9.124;2023-08-06T10:10:16;0.90;;;0.60;;
2488;SDS011;1255;48.716;9.124;2023-08-06T10:12:46;0.80;;;0.70;;
2488;SDS011;1255;48.716;9.124;2023-08-06T10:15:16;0.80;;;0.67;;
2488;SDS011;1255;48.716;9.124;2023-08-06T10:17:47;0.70;;;0.60;;
2488;SDS011;1255;48.716;9.124;2023-08-06T10:20:18;0.80;;;0.60;;
2488;SDS011;1255;48.716;9.124;2023-08-06T10:22:46;0.80;;;0.60;;
2488;SDS011;1255;48.716;9.124;2023-08-06T10:25:26;1.27;;;0.70;;
2488;SDS011;1255;48.716;9.124;2023-08-06T10:28:00;1.00;;;0.80;;
2488;SDS011;1255;48.716;9.124;2023-08-06T10:30:33;0.80;;;0.60;;
2488;SDS011;1255;48.716;9.124;2023-08-06T10:33:07;0.80;;;0.60;;
2488;SDS011;1255;48.716;9.124;2023-08-06T10:35:35;0.90;;;0.70;;
2488;SDS011;1255;48.716;9.124;2023-08-06T10:38:03;0.90;;;0.70;;
2488;SDS011;1255;48.716;9.124;2023-08-06T10:40:33;0.87;;;0.70;;
2488;SDS011;1255;48.716;9.124;2023-08-06T10:43:02;2.50;;;0.80;;
2488;SDS011;1255;48.716;9.124;2023-08-06T10:45:36;0.80;;;0.70;;
2488;SDS011;1255;48.716;9.124;2023-08-06T10:48:04;0.80;;;0.70;;
2488;SDS011;1255;48.716;9.124;2023-08-06T10:50:31;0.80;;;0.60;;
2488;SDS011;1255;48.716;9.124;2023-08-06T10:53:03;1.17;;;0.70;;
2488;SDS011;1255;48.716;9.124;2023-08-06T10:55:31;0.90;;;0.70;;
2488;SDS011;1255;48.716;9.124;2023-08-06T10:57:59;0.80;;;0.70;;
2488;SDS011;1255;48.716;9.124;2023-08-06T11:00:30;1.10;;;0.70;;
2488;SDS011;1255;48.716;9.124;2023-08-06T11:03:01;0.90;;;0.70;;
2488;SDS011;1255;48.716;9.124;2023-08-06T11:05:30;0.80;;;0.70;;
2488;SDS011;1255;48.716;9.124;2023-08-06T11:07:57;0.80;;;0.60;;
2488;SDS011;1255;48.716;9.124;2023-08-06T11:10:23;0.80;;;0.70;;
2488;SDS011;1255;48.716;9.124;2023-08-06T11:12:50;1.20;;;0.70;;
2488;SDS011;1255;48.716;9.124;2023-08-06T11:15:19;0.80;;;0.60;;
2488;SDS011;1255;48.716;9.124;2023-08-06T11:17:48;1.10;;;0.80;;
2488;SDS011;1255;48.716;9.124;2023-08-06T11:20:14;0.87;;;0.70;;
2488;SDS011;1255;48.716;9.124;2023-08-06T11:22:41;0.97;;;0.83;;
2488;SDS011;1255;48.716;9.124;2023-08-06T11:25:08;0.90;;;0.70;;
2488;SDS011;1255;48.716;9.124;2023-08-06T11:27:35;0.90;;;0.70;;
2488;SDS011;1255;48.716;9.124;2023-08-06T11:30:01;1.00;;;0.70;;
2488;SDS011;1255;48.716;9.124;2023-08-06T11:32:29;1.00;;;0.80;;
2488;SDS011;1255;48.716;9.124;2023-08-06T11:34:57;0.80;;;0.70;;
2488;SDS011;1255;48.716;9.124;2023-08-06T11:37:23;0.90;;;0.80;;
2488;SDS011;1255;48.716;9.124;2023-08-06T11:39:50;1.20;;;0.80;;
2488;SDS011;1255;48.716;9.124;2023-08-06T11:42:18;1.00;;;0.90;;
2488;SDS011;1255;48.716;9.124;2023-08-06T11:44:45;2.03;;;1.10;;
2488;SDS011;1255;48.716;9.124;2023-08-06T11:47:12;0.87;;;0.80;;
2488;SDS011;1255;48.716;9.124;2023-08-06T11:49:41;1.30;;;0.80;;
2488;SDS011;1255;48.716;9.124;2023-08-06T11:52:12;0.90;;;0.80;;
2488;SDS011;1255;48.716;9.124;2023-08-06T11:54:41;1.00;;;0.80;;
2488;SDS011;1255;48.716;9.124;2023-08-06T11:57:08;1.03;;;0.87;;
2488;SDS011;1255;48.716;9.124;2023-08-06T11:59:35;1.73;;;0.70;;
2488;SDS011;1255;48.716;9.124;2023-08-06T12:02:03;1.00;;;0.90;;
2488;SDS011;1255;48.716;9.124;2023-08-06T12:04:31;1.50;;;1.10;;
2488;SDS011;1255;48.716;9.124;2023-08-06T12:07:04;1.40;;;1.20;;
2488;SDS011;1255;48.716;9.124;2023-08-06T12:09:34;0.90;;;0.80;;
2488;SDS011;1255;48.716;9.124;2023-08-06T12:12:01;1.13;;;0.87;;
2488;SDS011;1255;48.716;9.124;2023-08-06T12:14:28;1.10;;;0.90;;
2488;SDS011;1255;48.716;9.124;2023-08-06T12:16:55;2.43;;;1.10;;
2488;SDS011;1255;48.716;9.124;2023-08-06T12:19:21;1.03;;;0.93;;
2488;SDS011;1255;48.716;9.124;2023-08-06T12:21:48;1.70;;;1.00;;
2488;SDS011;1255;48.716;9.124;2023-08-06T12:24:15;1.10;;;0.90;;
2488;SDS011;1255;48.716;9.124;2023-08-06T12:26:43;1.00;;;0.90;;
2488;SDS011;1255;48.716;9.124;2023-08-06T12:29:10;1.20;;;0.80;;
2488;SDS011;1255;48.716;9.124;2023-08-06T12:31:36;1.30;;;1.20;;
2488;SDS011;1255;48.716;9.124;2023-08-06T12:34:03;1.03;;;0.90;;
2488;SDS011;1255;48.716;9.124;2023-08-06T12:36:30;1.00;;;0.90;;
2488;SDS011;1255;48.716;9.124;2023-08-06T12:38:57;1.10;;;0.90;;
2488;SDS011;1255;48.716;9.124;2023-08-06T12:41:24;1.30;;;1.00;;
2488;SDS011;1255;48.716;9.124;2023-08-06T12:43:52;1.20;;;0.90;;
2488;SDS011;1255;48.716;9.124;2023-08-06T12:46:19;1.97;;;0.90;;
2488;SDS011;1255;48.716;9.124;2023-08-06T12:48:45;1.10;;;0.87;;
2488;SDS011;1255;48.716;9.124;2023-08-06T12:51:13;1.30;;;1.00;;
2488;SDS011;1255;48.716;9.124;2023-08-06T12:53:40;1.50;;;0.97;;
2488;SDS011;1255;48.716;9.124;2023-08-06T12:56:07;1.23;;;1.07;;
2488;SDS011;1255;48.716;9.124;2023-08-06T12:58:33;1.10;;;0.83;;
2488;SDS011;1255;48.716;9.124;2023-08-06T13:01:02;1.50;;;1.23;;
2488;SDS011;1255;48.716;9.124;2023-08-06T13:03:28;1.93;;;1.17;;
2488;SDS011;1255;48.716;9.124;2023-08-06T13:05:55;1.37;;;1.27;;
2488;SDS011;1255;48.716;9.124;2023-08-06T13:08:22;1.20;;;1.00;;
2488;SDS011;1255;48.716;9.124;2023-08-06T13:10:49;1.10;;;0.93;;
2488;SDS011;1255;48.716;9.124;2023-08-06T13:13:16;3.70;;;1.20;;
2488;SDS011;1255;48.716;9.124;2023-08-06T13:15:42;1.10;;;0.90;;
2488;SDS011;1255;48.716;9.124;2023-08-06T13:18:11;1.20;;;1.10;;
2488;SDS011;1255;48.716;9.124;2023-08-06T13:20:38;2.00;;;1.30;;
2488;SDS011;1255;48.716;9.124;2023-08-06T13:23:05;1.57;;;1.13;;
2488;SDS011;1255;48.716;9.124;2023-08-06T13:25:32;1.63;;;0.83;;
2488;SDS011;1255;48.716;9.124;2023-08-06T13:28:01;1.77;;;0.90;;
2488;SDS011;1255;48.716;9.124;2023-08-06T13:30:28;1.50;;;1.07;;
2488;SDS011;1255;48.716;9.124;2023-08-06T13:32:55;1.30;;;1.10;;
2488;SDS011;1255;48.716;9.124;2023-08-06T13:35:23;1.77;;;0.90;;
2488;SDS011;1255;48.716;9.124;2023-08-06T13:37:50;1.50;;;1.00;;
2488;SDS011;1255;48.716;9.124;2023-08-06T13:40:17;1.10;;;0.90;;
2488;SDS011;1255;48.716;9.124;2023-08-06T13:42:44;0.80;;;0.70;;
2488;SDS011;1255;48.716;9.124;2023-08-06T13:45:10;1.00;;;0.80;;
2488;SDS011;1255;48.716;9.124;2023-08-06T13:47:37;1.33;;;1.10;;
2488;SDS011;1255;48.716;9.124;2023-08-06T13:50:04;1.23;;;0.90;;
2488;SDS011;1255;48.716;9.124;2023-08-06T13:52:33;1.30;;;0.90;;
2488;SDS011;1255;48.716;9.124;2023-08-06T13:55:00;1.20;;;0.83;;
2488;SDS011;1255;48.716;9.124;2023-08-06T13:57:28;1.30;;;0.90;;
2488;SDS011;1255;48.716;9.124;2023-08-06T13:59:55;1.10;;;0.90;;
2488;SDS011;1255;48.716;9.124;2023-08-06T14:02:22;0.97;;;0.80;;
2488;SDS011;1255;48.716;9.124;2023-08-06T14:04:50;1.00;;;0.90;;
2488;SDS011;1255;48.716;9.124;2023-08-06T14:07:17;1.30;;;1.10;;
2488;SDS011;1255;48.716;9.124;2023-08-06T14:09:45;1.13;;;0.90;;
2488;SDS011;1255;48.716;9.124;2023-08-06T14:12:14;1.00;;;0.73;;
2488;SDS011;1255;48.716;9.124;2023-08-06T14:14:41;1.00;;;0.90;;
2488;SDS011;1255;48.716;9.124;2023-08-06T14:17:08;0.90;;;0.77;;
2488;SDS011;1255;48.716;9.124;2023-08-06T14:19:34;1.67;;;1.10;;
2488;SDS011;1255;48.716;9.124;2023-08-06T14:22:01;1.07;;;0.90;;
2488;SDS011;1255;48.716;9.124;2023-08-06T14:24:28;2.60;;;1.20;;
2488;SDS011;1255;48.716;9.124;2023-08-06T14:26:56;1.10;;;0.80;;
2488;SDS011;1255;48.716;9.124;2023-08-06T14:29:23;1.30;;;1.10;;
2488;SDS011;1255;48.716;9.124;2023-08-06T14:31:49;1.10;;;0.90;;
2488;SDS011;1255;48.716;9.124;2023-08-06T14:34:17;1.20;;;1.10;;
2488;SDS011;1255;48.716;9.124;2023-08-06T14:36:46;0.90;;;0.80;;
2488;SDS011;1255;48.716;9.124;2023-08-06T14:39:13;1.23;;;0.90;;
2488;SDS011;1255;48.716;9.124;2023-08-06T14:41:40;1.13;;;1.03;;
2488;SDS011;1255;48.716;9.124;2023-08-06T14:44:08;1.20;;;0.90;;
2488;SDS011;1255;48.716;9.124;2023-08-06T14:46:35;0.90;;;0.80;;
2488;SDS011;1255;48.716;9.124;2023-08-06T14:49:01;1.30;;;1.07;;
2488;SDS011;1255;48.716;9.124;2023-08-06T14:51:28;0.80;;;0.80;;
2488;SDS011;1255;48.716;9.124;2023-08-06T14:53:55;1.10;;;1.00;;
2488;SDS011;1255;48.716;9.124;2023-08-06T14:56:22;1.10;;;1.00;;
2488;SDS011;1255;48.716;9.124;2023-08-06T14:58:49;1.03;;;0.93;;
2488;SDS011;1255;48.716;9.124;2023-08-06T15:01:17;0.90;;;0.80;;
2488;SDS011;1255;48.716;9.124;2023-08-06T15:03:44;1.57;;;1.00;;
2488;SDS011;1255;48.716;9.124;2023-08-06T15:06:10;0.90;;;0.70;;
2488;SDS011;1255;48.716;9.124;2023-08-06T15:08:37;1.20;;;1.00;;
2488;SDS011;1255;48.716;9.124;2023-08-06T15:11:04;1.13;;;1.00;;
2488;SDS011;1255;48.716;9.124;2023-08-06T15:13:30;1.20;;;1.10;;
2488;SDS011;1255;48.716;9.124;2023-08-06T15:15:57;0.90;;;0.80;;
2488;SDS011;1255;48.716;9.124;2023-08-06T15:18:25;1.30;;;1.10;;